Time;durP1;ratioP1;P1;durP2;ratioP2;P2;SDS_P1;SDS_P2;PMS_P1;PMS_P2;Temp;Humidity;BMP_temperature;BMP_pressure;BME280_temperature;BME280_humidity;BME280_pressure;Samples;Min_cycle;Max_cycle;Signal;HPM_P1;HPM_P2
2022/02/03 00:02:35;;;;;;;7.35;5.60;;;;;;;9.11;100.00;100062.34;5091847;28;20190;-79
2022/02/03 00:05:08;;;;;;;8.45;6.00;;;;;;;9.26;100.00;100060.78;5092221;28;20695;-79
2022/02/03 00:07:45;;;;;;;7.43;5.18;;;;;;;9.22;100.00;100060.03;5092033;28;20195;-79
2022/02/03 00:10:33;;;;;;;6.45;5.25;;;;;;;9.18;100.00;100055.78;5092781;28;20190;-79
2022/02/03 00:24:18;;;;;;;8.00;5.63;;;;;;;9.32;100.00;100039.88;5091915;28;20198;-79
2022/02/03 00:26:54;;;;;;;6.80;4.90;;;;;;;9.26;100.00;100056.28;5086087;28;20526;-79
2022/02/03 00:29:40;;;;;;;7.57;5.90;;;;;;;9.31;100.00;100054.25;5091588;28;20189;-78
2022/02/03 00:32:26;;;;;;;8.25;6.35;;;;;;;9.30;100.00;100052.53;5091897;28;20297;-79
2022/02/03 00:35:18;;;;;;;7.45;5.97;;;;;;;9.32;100.00;100061.38;5092311;28;20185;-79
2022/02/03 00:37:58;;;;;;;9.20;6.53;;;;;;;9.37;100.00;100051.28;5085364;28;20190;-79
2022/02/03 00:48:45;;;;;;;6.63;5.60;;;;;;;9.35;100.00;100045.13;5091495;28;20708;-79
2022/02/03 00:51:13;;;;;;;9.73;6.00;;;;;;;9.51;100.00;100049.78;5091324;28;20198;-79
2022/02/03 00:53:40;;;;;;;7.18;6.22;;;;;;;9.54;100.00;100049.63;5091291;28;20227;-79
2022/02/03 00:56:13;;;;;;;7.15;5.85;;;;;;;9.42;100.00;100053.75;5091446;28;20557;-78
2022/02/03 00:58:42;;;;;;;8.10;6.18;;;;;;;9.49;100.00;100038.22;5091713;28;20536;-79
2022/02/03 01:01:12;;;;;;;7.35;5.60;;;;;;;9.56;100.00;100039.69;5091260;28;20201;-80
2022/02/03 01:03:39;;;;;;;6.57;5.38;;;;;;;9.50;100.00;100026.56;5091176;28;20672;-78
2022/02/03 01:06:08;;;;;;;6.68;5.20;;;;;;;9.61;100.00;100024.22;5091430;28;20197;-78
2022/02/03 01:08:42;;;;;;;8.20;5.22;;;;;;;9.57;100.00;100020.81;5090926;28;20278;-79
2022/02/03 01:11:17;;;;;;;7.10;5.35;;;;;;;9.82;100.00;100023.19;5089788;28;20717;-79
2022/02/03 01:13:49;;;;;;;7.40;5.53;;;;;;;9.87;100.00;100025.66;5092004;28;20197;-79
2022/02/03 01:16:27;;;;;;;6.53;5.00;;;;;;;9.97;100.00;100036.81;5091310;28;20270;-78
2022/02/03 01:19:31;;;;;;;7.25;5.90;;;;;;;9.83;100.00;100024.06;5091021;28;20183;-78
2022/02/03 01:44:13;;;;;;;6.50;4.82;;;;;;;10.07;100.00;100023.81;5090752;28;20277;-80
2022/02/03 01:46:50;;;;;;;8.20;5.40;;;;;;;10.12;100.00;100025.31;5091337;28;20184;-80
2022/02/03 01:49:29;;;;;;;6.90;5.68;;;;;;;10.08;100.00;100026.41;5091094;28;20184;-79
2022/02/03 01:51:59;;;;;;;5.88;4.93;;;;;;;10.03;100.00;100021.25;5090635;28;20226;-78
2022/02/03 01:54:29;;;;;;;7.30;5.13;;;;;;;10.16;100.00;100021.53;5091786;28;20547;-79
2022/02/03 01:57:07;;;;;;;8.23;5.10;;;;;;;9.97;100.00;100009.94;5091266;28;20201;-79
2022/02/03 01:59:37;;;;;;;6.25;4.93;;;;;;;10.03;100.00;100010.50;5095065;28;20652;-79
2022/02/03 02:02:06;;;;;;;5.47;4.30;;;;;;;10.00;100.00;99999.91;5094418;28;20191;-79
2022/02/03 02:05:05;;;;;;;5.63;4.68;;;;;;;9.90;100.00;99993.22;5094727;28;20203;-79
2022/02/03 02:07:58;;;;;;;5.72;4.55;;;;;;;10.06;100.00;99995.16;5084045;28;20198;-79
2022/02/03 02:10:54;;;;;;;5.35;4.10;;;;;;;10.12;100.00;99994.84;5084567;28;20262;-79
2022/02/03 02:13:43;;;;;;;6.32;4.85;;;;;;;10.02;100.00;99995.31;5089429;28;20212;-79
2022/02/03 02:16:30;;;;;;;7.50;5.00;;;;;;;9.94;100.00;100002.00;5090703;28;20216;-79
2022/02/03 02:19:14;;;;;;;6.07;4.90;;;;;;;9.87;100.00;99995.19;5094166;28;20348;-79
2022/02/03 02:38:56;;;;;;;5.88;4.18;;;;;;;9.79;100.00;99979.41;5093743;28;20238;-79
2022/02/03 02:44:38;;;;;;;6.38;4.50;;;;;;;9.67;100.00;99970.13;5054068;28;20237;-79
2022/02/03 02:47:13;;;;;;;5.82;4.80;;;;;;;9.66;100.00;99972.91;5093776;28;20187;-80
2022/02/03 02:49:51;;;;;;;5.40;4.90;;;;;;;9.75;100.00;99981.41;5093072;28;20188;-79
2022/02/03 02:52:25;;;;;;;7.40;5.43;;;;;;;9.75;100.00;99978.72;5093294;28;20299;-80
2022/02/03 02:55:07;;;;;;;6.28;5.05;;;;;;;9.50;100.00;99972.78;5093133;28;20622;-79
2022/02/03 03:31:52;;;;;;;7.80;5.72;;;;;;;9.48;100.00;99932.53;5085477;28;20190;-80
2022/02/03 03:34:39;;;;;;;7.30;5.40;;;;;;;9.38;100.00;99933.91;5092375;28;20194;-79
2022/02/03 03:37:12;;;;;;;6.75;5.68;;;;;;;9.37;100.00;99927.66;5092766;28;20187;-80
2022/02/03 03:39:45;;;;;;;7.30;5.40;;;;;;;9.56;100.00;99926.78;5093707;28;20720;-80
2022/02/03 03:42:14;;;;;;;7.65;5.40;;;;;;;9.62;100.00;99922.94;5093146;28;20206;-80
2022/02/03 03:44:43;;;;;;;7.43;5.70;;;;;;;9.65;100.00;99920.94;5086089;28;20274;-80
2022/02/03 03:47:17;;;;;;;7.10;5.20;;;;;;;9.73;100.00;99918.75;5092778;28;20629;-80
2022/02/03 03:49:47;;;;;;;7.57;6.25;;;;;;;9.43;100.00;99922.94;5089439;28;20187;-79
2022/02/03 03:52:19;;;;;;;6.93;5.72;;;;;;;9.26;100.00;99930.00;5090377;28;20688;-80
2022/02/03 03:54:55;;;;;;;7.65;6.07;;;;;;;9.36;100.00;99925.94;5092783;28;20192;-80
2022/02/03 03:57:38;;;;;;;7.68;5.68;;;;;;;9.26;100.00;99918.38;5092834;28;20191;-80
2022/02/03 04:56:25;;;;;;;11.50;7.07;;;;;;;9.34;100.00;99882.13;5028958;28;20253;-79
2022/02/03 05:02:26;;;;;;;11.38;7.13;;;;;;;9.40;100.00;99876.44;5088120;28;20227;-79
2022/02/03 05:05:13;;;;;;;10.18;7.50;;;;;;;9.35;100.00;99880.31;5086920;28;20252;-79
2022/02/03 05:08:01;;;;;;;8.38;6.80;;;;;;;9.43;100.00;99870.06;5087464;28;20582;-79
2022/02/03 05:10:58;;;;;;;22.67;13.55;;;;;;;9.33;100.00;99869.63;5087680;28;20694;-79
2022/02/03 05:13:47;;;;;;;9.48;6.60;;;;;;;9.10;100.00;99867.19;5073875;28;20248;-80
2022/02/03 05:23:18;;;;;;;8.35;6.53;;;;;;;9.17;100.00;99863.25;5051915;28;20227;-79
2022/02/03 05:26:21;;;;;;;10.55;7.43;;;;;;;9.38;100.00;99856.84;5071294;28;20281;-79
2022/02/03 05:32:55;;;;;;;9.48;7.03;;;;;;;9.40;100.00;99836.13;5035954;28;20196;-78
2022/02/03 05:44:28;;;;;;;9.85;6.40;;;;;;;9.37;100.00;99828.22;5074276;28;20242;-77
2022/02/03 05:47:10;;;;;;;8.55;6.93;;;;;;;9.54;100.00;99826.50;5072719;28;20200;-78
2022/02/03 05:52:41;;;;;;;7.82;5.72;;;;;;;9.51;100.00;99829.38;5071705;28;20191;-79
2022/02/03 06:00:56;;;;;;;6.60;5.53;;;;;;;9.32;100.00;99834.78;5073517;28;20234;-79
2022/02/03 06:01:49;;;;;;;7.80;5.35;;;;;;;9.38;100.00;99831.78;5066304;28;20711;-78
2022/02/03 06:04:31;;;;;;;6.00;4.80;;;;;;;9.49;100.00;99825.88;5073727;28;20649;-78
2022/02/03 06:12:56;;;;;;;7.13;5.35;;;;;;;9.41;100.00;99828.97;5030010;28;20602;-77
2022/02/03 06:15:32;;;;;;;6.68;4.82;;;;;;;9.08;100.00;99829.66;5048686;28;20204;-77
2022/02/03 06:21:12;;;;;;;6.85;5.00;;;;;;;9.27;100.00;99818.91;5038299;28;20199;-79
2022/02/03 06:23:53;;;;;;;6.22;4.88;;;;;;;9.08;100.00;99815.34;5072046;28;20621;-79
2022/02/03 06:29:07;;;;;;;5.90;4.47;;;;;;;8.84;100.00;99814.72;5066537;28;20273;-78
2022/02/03 06:31:39;;;;;;;6.45;4.75;;;;;;;8.82;100.00;99816.59;5072445;28;20686;-79
2022/02/03 06:34:07;;;;;;;6.75;4.60;;;;;;;8.56;100.00;99814.19;5072458;28;20198;-79
2022/02/03 06:36:35;;;;;;;5.53;4.43;;;;;;;8.75;100.00;99816.00;5072225;28;20576;-80
2022/02/03 06:39:01;;;;;;;5.82;5.00;;;;;;;8.68;100.00;99810.09;5071431;28;20274;-79
2022/02/03 06:41:28;;;;;;;6.25;4.55;;;;;;;8.91;100.00;99817.03;5071415;28;20211;-79
2022/02/03 06:43:55;;;;;;;6.10;4.45;;;;;;;8.84;100.00;99812.03;5072314;28;20198;-78
2022/02/03 06:46:24;;;;;;;8.88;4.45;;;;;;;8.85;100.00;99798.53;5071849;28;20641;-79
2022/02/03 06:49:05;;;;;;;9.55;5.00;;;;;;;8.91;100.00;99802.72;5073019;28;20626;-78
2022/02/03 06:51:34;;;;;;;5.38;3.92;;;;;;;8.94;100.00;99784.66;5073684;28;20234;-77
2022/02/03 06:54:07;;;;;;;6.93;4.75;;;;;;;9.15;100.00;99782.72;5072081;28;20519;-77
2022/02/03 06:56:39;;;;;;;5.53;4.07;;;;;;;8.96;100.00;99785.47;5072138;28;20226;-78
2022/02/03 06:59:11;;;;;;;6.65;4.95;;;;;;;9.11;100.00;99791.03;5072271;28;20196;-78
2022/02/03 07:01:41;;;;;;;5.85;4.75;;;;;;;9.02;100.00;99791.47;5071367;28;20224;-78
2022/02/03 07:04:17;;;;;;;7.80;5.00;;;;;;;9.17;100.00;99794.28;5071868;28;20238;-78
2022/02/03 07:06:43;;;;;;;4.00;3.50;;;;;;;9.20;100.00;99793.25;5064903;28;20194;-79
2022/02/03 07:09:11;;;;;;;6.10;4.50;;;;;;;9.20;100.00;99798.63;5071793;28;20197;-76
2022/02/03 07:11:39;;;;;;;5.00;4.10;;;;;;;9.06;100.00;99782.31;5071675;28;20191;-78
2022/02/03 07:14:08;;;;;;;6.57;4.22;;;;;;;9.23;100.00;99770.75;5071798;28;20629;-77
2022/02/03 07:16:42;;;;;;;6.70;4.78;;;;;;;9.21;100.00;99764.59;5071426;28;20602;-78
2022/02/03 07:19:10;;;;;;;6.03;4.07;;;;;;;9.06;100.00;99766.22;5072270;28;20280;-78
2022/02/03 07:21:37;;;;;;;6.28;4.45;;;;;;;9.09;100.00;99755.31;5064201;28;20207;-78
2022/02/03 07:24:04;;;;;;;4.90;3.50;;;;;;;9.21;100.00;99751.16;5071883;28;20548;-78
2022/02/03 07:26:30;;;;;;;6.13;3.95;;;;;;;9.30;100.00;99745.31;5071363;28;20203;-78
2022/02/03 07:28:57;;;;;;;6.88;5.15;;;;;;;9.36;100.00;99736.94;5071461;28;20196;-78
2022/02/03 07:31:24;;;;;;;7.22;6.13;;;;;;;9.44;100.00;99736.56;5070834;28;20210;-78
2022/02/03 07:33:50;;;;;;;5.25;4.40;;;;;;;9.01;100.00;99733.34;5071405;28;20199;-78
2022/02/03 07:36:21;;;;;;;7.75;4.78;;;;;;;9.30;100.00;99724.69;5070389;28;20724;-78
2022/02/03 07:38:48;;;;;;;6.75;5.30;;;;;;;9.36;100.00;99716.31;5071135;28;20214;-78
2022/02/03 07:41:15;;;;;;;7.15;5.00;;;;;;;9.48;100.00;99705.88;5070923;28;20235;-78
2022/02/03 07:43:41;;;;;;;8.35;5.90;;;;;;;9.56;100.00;99704.50;5070128;28;20219;-78
2022/02/03 07:46:08;;;;;;;9.23;5.20;;;;;;;9.50;100.00;99714.75;5071659;28;20282;-78
2022/02/03 07:48:34;;;;;;;8.90;5.97;;;;;;;9.25;100.00;99733.91;5071254;28;20612;-78
2022/02/03 07:51:01;;;;;;;9.00;6.32;;;;;;;9.34;100.00;99726.28;5070918;28;20295;-78
2022/02/03 07:53:29;;;;;;;9.15;6.60;;;;;;;9.34;100.00;99722.72;5070438;28;20211;-78
2022/02/03 07:55:56;;;;;;;11.30;6.50;;;;;;;9.49;100.00;99729.13;5070915;28;20282;-77
2022/02/03 07:58:22;;;;;;;8.18;6.35;;;;;;;9.52;100.00;99731.63;5071294;28;20207;-77
2022/02/03 08:00:49;;;;;;;10.43;7.35;;;;;;;9.60;100.00;99705.22;5071121;28;20288;-78
2022/02/03 08:03:16;;;;;;;8.10;5.80;;;;;;;9.57;100.00;99705.41;5071894;28;20237;-79
2022/02/03 08:05:47;;;;;;;9.60;6.80;;;;;;;9.60;100.00;99702.53;5071371;28;20223;-78
2022/02/03 08:08:20;;;;;;;8.38;6.05;;;;;;;9.71;100.00;99696.59;5071055;28;20279;-78
2022/02/03 08:10:50;;;;;;;7.80;6.00;;;;;;;9.77;100.00;99699.84;5071434;28;20192;-78
2022/02/03 08:13:22;;;;;;;6.40;5.05;;;;;;;9.73;100.00;99706.34;5073186;28;20184;-78
2022/02/03 08:15:56;;;;;;;7.97;5.22;;;;;;;9.76;100.00;99700.78;5071515;28;20590;-78
2022/02/03 08:18:22;;;;;;;6.28;5.15;;;;;;;9.68;100.00;99681.50;5071870;28;20281;-77
2022/02/03 08:20:53;;;;;;;6.03;4.97;;;;;;;9.74;100.00;99691.91;5071606;28;20187;-78
2022/02/03 08:26:14;;;;;;;8.13;5.32;;;;;;;9.78;100.00;99681.88;5071849;28;20215;-77
2022/02/03 08:29:08;;;;;;;8.10;5.93;;;;;;;9.75;100.00;99676.69;5071089;28;20262;-77
2022/02/03 08:31:41;;;;;;;13.60;6.90;;;;;;;9.79;100.00;99686.28;5071979;28;20200;-78
2022/02/03 08:34:13;;;;;;;20.95;18.65;;;;;;;9.99;100.00;99679.84;5071398;28;20212;-78
2022/02/03 08:36:40;;;;;;;7.95;6.40;;;;;;;9.85;100.00;99663.59;5071771;28;20659;-77
2022/02/03 08:39:09;;;;;;;11.02;6.43;;;;;;;9.97;100.00;99676.38;5070683;28;20224;-76
2022/02/03 08:41:37;;;;;;;9.30;6.90;;;;;;;10.03;100.00;99668.84;5070771;28;20653;-77
2022/02/03 08:44:05;;;;;;;15.77;10.23;;;;;;;9.98;100.00;99672.75;5071481;28;20288;-77
2022/02/03 08:46:31;;;;;;;9.85;6.47;;;;;;;9.96;100.00;99669.25;5071592;28;20201;-78
2022/02/03 08:49:01;;;;;;;11.80;6.50;;;;;;;10.04;100.00;99658.97;5073867;28;20188;-77
2022/02/03 08:51:28;;;;;;;12.13;7.85;;;;;;;10.06;100.00;99664.25;5081133;28;20195;-83
2022/02/03 08:53:57;;;;;;;11.32;6.80;;;;;;;10.05;100.00;99662.50;5055702;28;20248;-83
2022/02/03 08:56:32;;;;;;;12.35;7.18;;;;;;;10.01;100.00;99651.91;5066680;28;20197;-83
2022/02/03 09:57:32;;;;;;;9.50;5.82;;;;;;;10.01;100.00;99613.38;5033501;28;20217;-76
2022/02/03 10:00:35;;;;;;;8.00;5.90;;;;;;;10.06;100.00;99602.38;5026056;28;20785;-76
2022/02/03 10:03:04;;;;;;;6.88;5.28;;;;;;;9.85;100.00;99604.44;5033215;28;20248;-76
2022/02/03 10:05:37;;;;;;;8.32;5.45;;;;;;;9.81;100.00;99604.63;5033435;28;20282;-76
2022/02/03 10:08:04;;;;;;;8.20;5.32;;;;;;;9.93;100.00;99597.69;5033571;28;20194;-75
2022/02/03 10:10:31;;;;;;;8.27;6.25;;;;;;;9.91;100.00;99582.59;5033526;28;20695;-76
2022/02/03 10:12:58;;;;;;;7.20;5.38;;;;;;;9.96;100.00;99577.81;5032928;28;20202;-76
2022/02/03 10:15:25;;;;;;;10.27;6.50;;;;;;;9.93;100.00;99588.75;5034136;28;20539;-76
2022/02/03 10:17:56;;;;;;;9.07;6.55;;;;;;;9.90;100.00;99594.28;5032876;28;20202;-76
2022/02/03 10:20:27;;;;;;;8.95;7.07;;;;;;;9.76;100.00;99592.34;5032871;28;20204;-76
2022/02/03 10:23:04;;;;;;;9.32;6.60;;;;;;;9.68;100.00;99598.16;5033264;28;20222;-75
2022/02/03 10:25:34;;;;;;;9.50;6.82;;;;;;;9.66;100.00;99592.00;5033005;28;20653;-76
2022/02/03 10:28:04;;;;;;;8.18;6.20;;;;;;;9.70;100.00;99584.63;5033320;28;20189;-76
2022/02/03 10:30:39;;;;;;;9.05;6.82;;;;;;;9.60;100.00;99601.25;5032738;28;20209;-76
2022/02/03 10:33:06;;;;;;;8.75;6.20;;;;;;;9.37;100.00;99605.19;5033131;28;20189;-75
2022/02/03 10:35:39;;;;;;;7.55;6.22;;;;;;;9.41;100.00;99587.09;5033033;28;20279;-77
2022/02/03 10:41:26;;;;;;;9.32;6.88;;;;;;;9.34;100.00;99559.66;5072665;28;20194;-77
2022/02/03 10:50:09;;;;;;;11.63;8.73;;;;;;;8.98;100.00;99541.88;5072392;28;20365;-77
2022/02/03 10:53:02;;;;;;;11.60;8.57;;;;;;;9.25;100.00;99565.53;5072490;28;20616;-77
2022/02/03 10:56:02;;;;;;;9.85;6.60;;;;;;;9.28;100.00;99549.25;5072012;28;20249;-77
2022/02/03 10:58:48;;;;;;;10.10;7.53;;;;;;;9.38;100.00;99520.94;5072299;28;20576;-77
2022/02/03 11:04:13;;;;;;;13.07;7.70;;;;;;;9.31;100.00;99532.94;5072116;28;20308;-76
2022/02/03 11:06:51;;;;;;;10.77;9.00;;;;;;;9.35;100.00;99537.22;5072570;28;20203;-76
2022/02/03 11:09:23;;;;;;;11.98;9.70;;;;;;;9.13;100.00;99552.75;5072048;28;20237;-77
2022/02/03 11:11:56;;;;;;;11.00;8.43;;;;;;;9.03;100.00;99548.81;5071665;28;20203;-78
2022/02/03 11:14:23;;;;;;;9.23;6.70;;;;;;;9.06;100.00;99529.84;5071778;28;20232;-77
2022/02/03 11:16:50;;;;;;;9.82;7.55;;;;;;;9.04;100.00;99529.06;5071981;28;20202;-76
2022/02/03 11:19:20;;;;;;;10.77;7.53;;;;;;;9.22;100.00;99524.53;5072193;28;20692;-75
2022/02/03 11:21:51;;;;;;;11.05;7.20;;;;;;;9.06;100.00;99528.03;5071988;28;20679;-77
2022/02/03 11:24:24;;;;;;;10.10;6.93;;;;;;;8.85;100.00;99519.28;5071959;28;20313;-76
2022/02/03 11:27:12;;;;;;;9.25;6.70;;;;;;;8.82;100.00;99513.19;5071702;28;20187;-77
2022/02/03 11:33:06;;;;;;;8.38;7.45;;;;;;;9.16;100.00;99513.16;5070410;28;20289;-77
2022/02/03 11:44:32;;;;;;;5.80;4.28;;;;;;;9.34;100.00;99475.50;5009195;28;20224;-75
2022/02/03 11:47:30;;;;;;;5.13;3.80;;;;;;;9.06;100.00;99487.72;5009882;28;20216;-77
2022/02/03 11:58:55;;;;;;;5.05;3.80;;;;;;;8.89;100.00;99477.91;5063681;28;20210;-77
2022/02/03 12:02:01;;;;;;;5.30;3.88;;;;;;;8.81;100.00;99477.44;5071151;28;20554;-77
2022/02/03 12:05:00;;;;;;;5.65;4.68;;;;;;;8.90;100.00;99470.72;5071066;28;20214;-78
2022/02/03 12:07:52;;;;;;;4.60;3.78;;;;;;;8.98;100.00;99471.19;5070801;28;20191;-77
2022/02/03 12:10:53;;;;;;;5.00;4.28;;;;;;;8.68;100.00;99484.38;5071940;28;20193;-77
2022/02/03 12:16:17;;;;;;;5.40;4.80;;;;;;;8.64;100.00;99455.97;5067581;28;20198;-78
2022/02/03 12:19:06;;;;;;;5.93;4.30;;;;;;;8.95;100.00;99471.31;5071126;28;20726;-77
2022/02/03 12:21:38;;;;;;;9.52;6.70;;;;;;;8.92;100.00;99461.63;5071174;28;20605;-77
2022/02/03 12:27:02;;;;;;;7.15;4.72;;;;;;;9.08;100.00;99436.63;5074120;28;20196;-77
2022/02/03 12:29:36;;;;;;;6.40;4.43;;;;;;;8.94;100.00;99437.38;5074909;28;20190;-77
2022/02/03 12:32:14;;;;;;;4.10;3.67;;;;;;;9.21;100.00;99439.53;5074690;28;20556;-77
2022/02/03 12:40:23;;;;;;;3.83;3.38;;;;;;;9.17;100.00;99396.69;5071065;28;20756;-77
2022/02/03 12:42:54;;;;;;;4.38;3.53;;;;;;;9.05;100.00;99386.63;5074507;28;20553;-77
2022/02/03 12:45:26;;;;;;;3.80;3.50;;;;;;;9.10;100.00;99399.81;5073882;28;20684;-75
2022/02/03 12:47:57;;;;;;;4.75;3.00;;;;;;;8.84;100.00;99386.00;5074073;28;20195;-76
2022/02/03 12:50:28;;;;;;;4.38;3.97;;;;;;;9.01;100.00;99381.53;5074129;28;20224;-76
2022/02/03 12:52:57;;;;;;;4.95;3.58;;;;;;;9.23;100.00;99392.81;5073857;28;20188;-76
2022/02/03 12:55:28;;;;;;;3.63;3.20;;;;;;;9.29;100.00;99395.13;5074353;28;20648;-76
2022/02/03 12:57:56;;;;;;;3.90;3.50;;;;;;;9.11;100.00;99388.09;5074203;28;20590;-77
2022/02/03 13:00:29;;;;;;;3.60;3.30;;;;;;;8.88;100.00;99384.84;5073981;28;20194;-76
2022/02/03 13:02:58;;;;;;;4.40;3.70;;;;;;;8.96;100.00;99382.63;5074034;28;20218;-77
2022/02/03 13:05:28;;;;;;;5.15;3.47;;;;;;;9.02;100.00;99367.13;5074036;28;20247;-77
2022/02/03 13:07:57;;;;;;;4.30;3.45;;;;;;;8.89;100.00;99361.59;5074076;28;20190;-77
2022/02/03 13:10:25;;;;;;;4.75;4.18;;;;;;;8.91;100.00;99373.97;5073884;28;20251;-77
2022/02/03 13:13:02;;;;;;;9.15;6.55;;;;;;;8.97;100.00;99384.34;5073968;28;20225;-76
2022/02/03 13:15:39;;;;;;;3.83;2.85;;;;;;;8.83;100.00;99381.56;5074083;28;20186;-77
2022/02/03 13:18:14;;;;;;;3.03;2.50;;;;;;;8.36;100.00;99376.88;5074208;28;20222;-77
2022/02/03 13:20:48;;;;;;;6.22;3.03;;;;;;;8.59;100.00;99373.00;5074406;28;20561;-77
2022/02/03 13:23:20;;;;;;;2.60;2.40;;;;;;;8.64;100.00;99351.28;5073417;28;20349;-76
2022/02/03 13:26:02;;;;;;;2.40;2.20;;;;;;;8.57;100.00;99356.16;5073775;28;20183;-78
2022/02/03 13:28:42;;;;;;;2.75;2.40;;;;;;;8.76;100.00;99358.69;5074003;28;20202;-77
2022/02/03 13:34:09;;;;;;;2.95;2.35;;;;;;;8.94;100.00;99344.25;5072274;28;20194;-78
2022/02/03 13:36:43;;;;;;;3.65;2.80;;;;;;;9.05;100.00;99356.25;5074050;28;20293;-78
2022/02/03 13:39:24;;;;;;;3.50;2.40;;;;;;;8.81;100.00;99350.38;5073092;28;20255;-78
2022/02/03 13:42:01;;;;;;;2.90;2.55;;;;;;;8.96;100.00;99334.31;5073677;28;20183;-77
2022/02/03 13:44:30;;;;;;;2.38;2.17;;;;;;;9.23;100.00;99312.22;5073380;28;20247;-75
2022/02/03 13:46:57;;;;;;;2.20;2.00;;;;;;;9.23;100.00;99327.47;5073628;28;20289;-75
2022/02/03 13:49:27;;;;;;;4.70;2.35;;;;;;;9.11;100.00;99320.94;5073588;28;20215;-75
2022/02/03 13:51:59;;;;;;;5.35;4.47;;;;;;;9.19;99.72;99310.66;5073211;28;20188;-78
2022/02/03 13:54:39;;;;;;;2.63;2.20;;;;;;;9.00;99.79;99316.22;5073493;28;20208;-77
2022/02/03 14:12:26;;;;;;;4.80;3.28;;;;;;;9.06;100.00;99299.72;5073047;28;20193;-76
2022/02/03 14:14:54;;;;;;;3.00;2.70;;;;;;;9.08;100.00;99296.97;5072330;28;20204;-75
2022/02/03 14:20:25;;;;;;;4.38;3.70;;;;;;;9.19;100.00;99294.53;5072809;28;20683;-77
2022/02/03 14:23:11;;;;;;;3.40;3.10;;;;;;;9.30;99.79;99297.47;5072862;28;20549;-77
2022/02/03 14:28:24;;;;;;;3.33;2.78;;;;;;;9.62;98.26;99283.13;5072476;28;20211;-76
2022/02/03 14:30:54;;;;;;;3.75;3.25;;;;;;;9.65;96.26;99282.91;5072167;28;20207;-77
2022/02/03 14:33:27;;;;;;;8.75;4.20;;;;;;;9.67;96.73;99276.50;5072205;28;20680;-77
2022/02/03 14:35:59;;;;;;;3.88;2.70;;;;;;;9.58;96.80;99277.91;5072551;28;20498;-77
2022/02/03 14:38:30;;;;;;;3.80;3.40;;;;;;;9.72;97.26;99279.78;5071995;28;20291;-77
2022/02/03 14:41:07;;;;;;;3.00;2.50;;;;;;;9.65;95.95;99280.22;5072235;28;20203;-76
2022/02/03 14:43:34;;;;;;;2.60;2.40;;;;;;;9.75;95.64;99284.97;5072011;28;20231;-77
2022/02/03 14:46:02;;;;;;;8.73;6.65;;;;;;;9.71;95.67;99286.13;5071046;28;20223;-77
2022/02/03 14:48:28;;;;;;;4.47;3.70;;;;;;;9.53;97.50;99293.44;5071993;28;20556;-77
2022/02/03 14:50:56;;;;;;;4.88;3.00;;;;;;;9.31;99.04;99274.16;5072341;28;20185;-77
2022/02/03 14:53:31;;;;;;;3.08;2.78;;;;;;;9.61;98.29;99276.88;5071774;28;20254;-76
2022/02/03 14:58:43;;;;;;;3.92;3.03;;;;;;;9.06;99.72;99288.13;5072402;28;20194;-76
2022/02/03 15:01:12;;;;;;;7.28;2.95;;;;;;;9.25;99.54;99296.88;5071922;28;20209;-76
2022/02/03 15:03:39;;;;;;;4.18;3.78;;;;;;;9.42;98.14;99289.66;5071991;28;20679;-76
2022/02/03 15:06:09;;;;;;;3.05;2.50;;;;;;;9.37;97.87;99295.28;5071573;28;20185;-76
2022/02/03 15:08:54;;;;;;;3.50;3.20;;;;;;;9.20;99.95;99293.56;5071934;28;20195;-76
2022/02/03 15:11:37;;;;;;;5.85;4.47;;;;;;;9.05;100.00;99287.28;5068526;28;20289;-77
2022/02/03 15:14:04;;;;;;;4.82;2.83;;;;;;;9.25;100.00;99275.38;5083936;28;20202;-81
2022/02/03 15:16:31;;;;;;;4.85;4.22;;;;;;;9.36;100.00;99272.94;5091801;28;20192;-77
2022/02/03 15:18:57;;;;;;;6.28;4.53;;;;;;;9.39;99.48;99271.91;5092147;28;20984;-78
2022/02/03 15:21:24;;;;;;;4.60;4.15;;;;;;;9.42;98.71;99273.53;5071047;28;20291;-77
2022/02/03 15:23:51;;;;;;;4.72;3.67;;;;;;;9.32;99.58;99282.13;5071443;28;20316;-76
2022/02/03 15:26:17;;;;;;;5.72;4.10;;;;;;;9.59;98.08;99268.91;5061538;28;20302;-78
2022/02/03 15:28:46;;;;;;;3.78;3.45;;;;;;;9.51;97.93;99271.16;5050991;28;20205;-82
2022/02/03 15:31:13;;;;;;;5.60;3.30;;;;;;;9.65;96.35;99267.66;5061671;28;20208;-79
2022/02/03 15:33:44;;;;;;;3.15;2.80;;;;;;;9.40;97.04;99276.28;5071465;28;20193;-77
2022/02/03 15:36:13;;;;;;;3.03;2.55;;;;;;;9.68;96.57;99275.56;5063837;28;20201;-82
2022/02/03 15:38:46;;;;;;;2.78;2.50;;;;;;;9.45;97.30;99271.53;5050952;28;20228;-80
2022/02/03 15:41:21;;;;;;;2.90;2.60;;;;;;;9.30;98.14;99284.03;5060083;28;20208;-78
2022/02/03 15:43:50;;;;;;;2.97;2.67;;;;;;;9.06;100.00;99280.06;5068618;28;20210;-77
2022/02/03 15:46:19;;;;;;;5.97;3.92;;;;;;;9.42;100.00;99274.38;5071053;28;20468;-78
2022/02/03 15:48:54;;;;;;;2.85;2.25;;;;;;;9.39;98.83;99271.91;5070971;28;20206;-78
2022/02/03 15:56:12;;;;;;;5.05;2.80;;;;;;;9.36;98.39;99267.56;5071289;28;20222;-79
2022/02/03 15:57:04;;;;;;;2.88;2.55;;;;;;;9.28;98.74;99258.22;5052261;28;20199;-76
2022/02/03 16:14:10;;;;;;;3.08;2.30;;;;;;;8.74;100.00;99254.09;5030498;28;20203;-79
2022/02/03 16:19:33;;;;;;;2.30;2.10;;;;;;;8.70;100.00;99255.19;5033933;28;20509;-77
2022/02/03 16:22:05;;;;;;;3.67;2.60;;;;;;;8.69;100.00;99255.31;5058652;28;20194;-79
2022/02/03 16:24:48;;;;;;;3.30;2.85;;;;;;;8.73;100.00;99255.06;5058073;28;20206;-78
2022/02/03 16:42:00;;;;;;;2.60;2.38;;;;;;;8.74;100.00;99246.03;5053056;28;20221;-81
2022/02/03 16:52:35;;;;;;;3.60;2.42;;;;;;;8.50;100.00;99250.97;5067936;28;20257;-81
2022/02/03 16:55:05;;;;;;;3.15;2.15;;;;;;;8.52;100.00;99254.44;5067665;28;20596;-84
2022/02/03 16:57:32;;;;;;;2.38;2.17;;;;;;;8.51;100.00;99241.94;5070142;28;20206;-81
2022/02/03 17:00:04;;;;;;;2.10;1.70;;;;;;;8.54;100.00;99236.41;5070345;28;20202;-82
2022/02/03 17:02:30;;;;;;;2.50;2.30;;;;;;;8.45;100.00;99236.91;5061545;28;20195;-80
2022/02/03 17:04:59;;;;;;;3.38;2.40;;;;;;;8.47;100.00;99235.00;5060839;28;21093;-79
2022/02/03 17:07:27;;;;;;;3.10;2.58;;;;;;;8.58;100.00;99241.63;5067115;28;20203;-79
2022/02/03 17:09:55;;;;;;;2.53;2.33;;;;;;;8.58;100.00;99255.03;5060789;28;20223;-79
2022/02/03 17:12:22;;;;;;;2.25;2.05;;;;;;;8.66;99.61;99258.16;5069631;28;20209;-78
2022/02/03 17:14:48;;;;;;;3.55;2.20;;;;;;;8.54;100.00;99268.59;5064988;28;20191;-78
2022/02/03 17:17:19;;;;;;;2.47;2.20;;;;;;;8.46;100.00;99265.50;5059266;28;20225;-75
2022/02/03 17:19:59;;;;;;;5.43;3.28;;;;;;;8.58;100.00;99258.56;5055843;28;20206;-75
2022/02/03 17:22:32;;;;;;;4.25;2.92;;;;;;;8.65;100.00;99248.38;5070098;28;20278;-79
2022/02/03 17:25:06;;;;;;;3.05;2.75;;;;;;;8.47;100.00;99245.75;5073764;28;20211;-78
2022/02/03 17:27:42;;;;;;;3.78;2.90;;;;;;;8.43;100.00;99259.41;5069646;28;20278;-80
2022/02/03 17:30:15;;;;;;;3.50;2.85;;;;;;;8.35;100.00;99246.41;5071405;28;20199;-81
2022/02/03 18:03:31;;;;;;;5.10;3.55;;;;;;;7.90;100.00;99234.50;5053090;28;20193;-82
2022/02/03 18:08:54;;;;;;;9.48;6.65;;;;;;;7.78;100.00;99240.50;5019423;28;20197;-80
2022/02/03 18:11:33;;;;;;;8.90;4.82;;;;;;;7.73;100.00;99256.81;5053031;28;20251;-80
2022/02/03 18:30:47;;;;;;;5.50;3.95;;;;;;;7.62;100.00;99273.47;5052739;28;20220;-81
2022/02/03 18:36:07;;;;;;;5.22;4.22;;;;;;;7.81;100.00;99272.53;5044065;28;20530;-80
2022/02/03 18:52:20;;;;;;;5.38;4.35;;;;;;;7.62;100.00;99267.22;5052842;28;20208;-80
2022/02/03 18:55:07;;;;;;;6.85;4.97;;;;;;;7.61;100.00;99263.69;5063672;28;20229;-81
2022/02/03 18:57:48;;;;;;;8.05;5.10;;;;;;;7.66;100.00;99267.00;5052417;28;20190;-80
2022/02/03 19:03:22;;;;;;;5.88;4.80;;;;;;;7.69;100.00;99261.50;5052526;28;20193;-82
2022/02/03 19:25:51;;;;;;;5.03;4.47;;;;;;;7.88;100.00;99258.72;5054600;28;20210;-81
2022/02/03 19:28:50;;;;;;;6.72;5.45;;;;;;;7.86;100.00;99265.09;5052057;28;20199;-81
2022/02/03 20:04:42;;;;;;;6.30;5.50;;;;;;;7.76;100.00;99261.19;5034724;28;20219;-82
2022/02/03 20:07:17;;;;;;;7.47;6.20;;;;;;;7.95;100.00;99256.56;5058239;28;20244;-84
2022/02/03 20:10:09;;;;;;;8.63;5.75;;;;;;;8.01;100.00;99255.41;5052680;28;20186;-84
2022/02/03 20:12:35;;;;;;;7.60;6.35;;;;;;;8.17;100.00;99250.09;5071504;28;20274;-81
2022/02/03 20:15:03;;;;;;;9.07;6.53;;;;;;;8.36;100.00;99248.97;5065807;28;20224;-81
2022/02/03 20:17:29;;;;;;;11.90;8.10;;;;;;;8.21;100.00;99247.16;5060235;28;20631;-81